createdAt,value
2022-10-22T00:01:38.992Z,7.85
2022-10-22T00:04:07.001Z,7.84
2022-10-22T00:06:35.122Z,7.81
2022-10-22T00:09:03.189Z,7.78
2022-10-22T00:11:31.320Z,7.75
2022-10-22T00:13:59.296Z,7.78
2022-10-22T00:16:28.653Z,7.73
2022-10-22T00:18:56.637Z,7.46
2022-10-22T00:21:25.767Z,7.65
2022-10-22T00:23:53.719Z,7.58
2022-10-22T00:26:21.662Z,7.59
2022-10-22T00:28:49.606Z,7.51
2022-10-22T00:31:19.211Z,7.53
2022-10-22T00:33:48.745Z,7.48
2022-10-22T00:36:16.764Z,7.48
2022-10-22T00:38:44.723Z,7.48
2022-10-22T00:41:13.050Z,7.51
2022-10-22T00:43:58.032Z,7.44
2022-10-22T00:46:25.996Z,7.48
2022-10-22T00:48:55.333Z,7.41
2022-10-22T00:51:23.679Z,7.35
2022-10-22T00:53:55.085Z,7.37
2022-10-22T00:56:23.304Z,7.39
2022-10-22T00:58:53.347Z,7.39
2022-10-22T01:01:23.099Z,7.39
2022-10-22T01:03:51.052Z,7.47
2022-10-22T01:06:23.785Z,7.39
2022-10-22T01:08:56.002Z,7.37
2022-10-22T01:11:26.859Z,7.33
2022-10-22T01:13:59.289Z,7.14
2022-10-22T01:16:31.624Z,7.29
2022-10-22T01:19:01.817Z,7.24
2022-10-22T01:21:32.826Z,7.19
2022-10-22T01:24:16.849Z,7.19
2022-10-22T01:26:55.504Z,7.09
2022-10-22T01:29:26.405Z,7.20
2022-10-22T01:31:56.475Z,7.20
2022-10-22T01:34:24.541Z,7.19
2022-10-22T01:36:52.526Z,7.13
2022-10-22T01:39:20.490Z,7.16
2022-10-22T01:41:48.511Z,7.18
2022-10-22T01:44:26.998Z,7.04
2022-10-22T01:46:56.067Z,6.99
2022-10-22T01:49:26.247Z,7.03
2022-10-22T01:51:57.999Z,6.81
2022-10-22T01:54:30.891Z,6.84
2022-10-22T01:57:04.809Z,6.88
2022-10-22T01:59:39.959Z,6.90
2022-10-22T02:02:12.314Z,6.92
2022-10-22T02:04:42.721Z,6.91
2022-10-22T02:07:11.898Z,6.80
2022-10-22T02:09:39.882Z,6.92
2022-10-22T02:12:08.258Z,6.94
2022-10-22T02:14:39.625Z,6.90
2022-10-22T02:17:07.703Z,6.83
2022-10-22T02:19:38.213Z,6.79
2022-10-22T02:22:06.202Z,6.87
2022-10-22T02:24:34.169Z,6.95
2022-10-22T02:27:04.226Z,6.86
2022-10-22T02:29:34.602Z,7.00
2022-10-22T02:32:04.431Z,6.97
2022-10-22T02:34:32.764Z,6.96
2022-10-22T02:37:01.145Z,6.96
2022-10-22T02:39:29.671Z,6.94
2022-10-22T02:41:58.099Z,6.93
2022-10-22T02:44:26.147Z,6.92
2022-10-22T02:46:54.093Z,6.94
2022-10-22T02:49:23.440Z,6.92
2022-10-22T02:51:51.407Z,6.92
2022-10-22T02:54:19.426Z,6.86
2022-10-22T02:56:47.372Z,6.84
2022-10-22T02:59:15.317Z,6.83
2022-10-22T03:01:43.281Z,6.84
2022-10-22T03:04:11.207Z,6.85
2022-10-22T03:06:43.845Z,6.86
2022-10-22T03:09:11.828Z,6.86
2022-10-22T03:11:39.827Z,6.81
2022-10-22T03:14:07.796Z,6.86
2022-10-22T03:16:35.770Z,6.88
2022-10-22T03:19:03.748Z,6.89
2022-10-22T03:21:33.454Z,6.89
2022-10-22T03:24:03.337Z,6.92
2022-10-22T03:26:31.268Z,6.96
2022-10-22T03:29:00.883Z,6.95
2022-10-22T03:31:28.810Z,6.94
2022-10-22T03:33:56.778Z,6.96
2022-10-22T03:36:24.734Z,6.91
2022-10-22T03:38:52.789Z,6.95
2022-10-22T03:41:22.109Z,7.01
2022-10-22T03:43:52.985Z,7.01
2022-10-22T03:46:20.997Z,6.98
2022-10-22T03:48:48.937Z,6.96
2022-10-22T03:51:16.869Z,6.93
2022-10-22T03:53:44.844Z,6.95
2022-10-22T03:56:12.942Z,6.86
2022-10-22T03:58:42.366Z,6.89
2022-10-22T04:01:11.300Z,6.92
2022-10-22T04:03:39.378Z,6.91
2022-10-22T04:06:08.398Z,6.86
2022-10-22T04:08:36.388Z,6.91
2022-10-22T04:11:04.365Z,6.92
2022-10-22T04:13:32.331Z,6.85
2022-10-22T04:16:09.914Z,6.84
2022-10-22T04:18:37.914Z,6.81
2022-10-22T04:21:06.222Z,6.81
2022-10-22T04:23:34.215Z,6.84
2022-10-22T04:26:02.675Z,6.81
2022-10-22T04:28:30.622Z,6.80
2022-10-22T04:30:58.618Z,6.86
2022-10-22T04:33:28.022Z,6.88
2022-10-22T04:35:55.991Z,6.91
2022-10-22T04:38:23.959Z,6.90
2022-10-22T04:40:51.928Z,6.87
2022-10-22T04:43:19.906Z,6.81
2022-10-22T04:45:47.928Z,6.94
2022-10-22T04:48:15.864Z,6.94
2022-10-22T04:50:45.210Z,6.97
2022-10-22T04:53:13.132Z,7.00
2022-10-22T04:55:41.149Z,7.07
2022-10-22T04:58:09.128Z,7.10
2022-10-22T05:00:37.229Z,7.16
2022-10-22T05:03:05.268Z,7.22
2022-10-22T05:05:33.959Z,7.24
2022-10-22T05:08:03.348Z,7.38
2022-10-22T05:10:31.286Z,7.48
2022-10-22T05:12:59.220Z,7.60
2022-10-22T05:15:27.211Z,7.68
2022-10-22T05:17:55.159Z,7.81
2022-10-22T05:20:23.134Z,7.99
2022-10-22T05:22:51.038Z,8.10
2022-10-22T05:25:20.352Z,8.37
2022-10-22T05:27:50.486Z,8.54
2022-10-22T05:30:18.447Z,8.72
2022-10-22T05:32:46.394Z,8.93
2022-10-22T05:35:14.431Z,9.24
2022-10-22T05:37:42.784Z,9.54
2022-10-22T05:40:26.415Z,9.85
2022-10-22T05:42:56.445Z,10.22
2022-10-22T05:45:24.431Z,10.52
2022-10-22T05:47:52.407Z,10.74
2022-10-22T05:50:20.466Z,10.95
2022-10-22T05:52:48.447Z,10.99
2022-10-22T05:55:16.610Z,11.28
2022-10-22T05:57:44.591Z,11.46
2022-10-22T06:00:16.551Z,11.47
2022-10-22T06:02:45.033Z,11.61
2022-10-22T06:05:13.010Z,11.86
2022-10-22T06:07:41.083Z,12.06
2022-10-22T06:10:11.113Z,12.20
2022-10-22T06:12:39.235Z,12.35
2022-10-22T06:15:08.776Z,12.45
2022-10-22T06:17:38.073Z,12.46
2022-10-22T06:20:06.977Z,12.55
2022-10-22T06:22:34.943Z,12.60
2022-10-22T06:25:02.897Z,12.80
2022-10-22T06:27:30.857Z,13.03
2022-10-22T06:29:58.847Z,13.46
2022-10-22T06:32:26.813Z,13.92
2022-10-22T06:34:56.219Z,14.25
2022-10-22T06:37:24.191Z,14.57
2022-10-22T06:39:52.159Z,14.75
2022-10-22T06:42:20.127Z,15.00
2022-10-22T06:44:48.098Z,15.30
2022-10-22T06:47:16.071Z,15.45
2022-10-22T06:49:44.032Z,15.83
2022-10-22T06:52:13.953Z,16.01
2022-10-22T06:54:41.922Z,16.09
2022-10-22T06:57:09.863Z,16.00
2022-10-22T06:59:38.272Z,16.04
2022-10-22T07:02:06.242Z,16.03
2022-10-22T07:04:34.297Z,16.22
2022-10-22T07:07:02.284Z,16.18
2022-10-22T07:09:31.657Z,16.24
2022-10-22T07:11:59.758Z,16.28
2022-10-22T07:14:27.768Z,16.46
2022-10-22T07:16:55.797Z,16.52
2022-10-22T07:19:23.768Z,16.67
2022-10-22T07:21:51.740Z,16.73
2022-10-22T07:24:19.706Z,16.69
2022-10-22T07:26:49.071Z,16.76
2022-10-22T07:29:17.082Z,16.75
2022-10-22T07:31:45.051Z,16.55
2022-10-22T07:34:13.054Z,16.48
2022-10-22T07:36:41.017Z,16.32
2022-10-22T07:39:09.064Z,16.17
2022-10-22T07:41:37.034Z,16.27
2022-10-22T07:44:06.433Z,16.44
2022-10-22T07:46:35.328Z,16.59
2022-10-22T07:49:03.298Z,16.77
2022-10-22T07:51:31.266Z,16.86
2022-10-22T07:53:59.226Z,16.84
2022-10-22T07:56:27.207Z,17.16
2022-10-22T07:58:55.198Z,17.10
2022-10-22T08:01:24.585Z,17.13
2022-10-22T08:03:52.853Z,17.05
2022-10-22T08:06:20.827Z,16.97
2022-10-22T08:08:49.520Z,16.87
2022-10-22T08:11:17.550Z,16.97
2022-10-22T08:13:45.968Z,17.08
2022-10-22T08:16:14.351Z,17.28
2022-10-22T08:18:43.709Z,17.67
2022-10-22T08:21:11.707Z,17.92
2022-10-22T08:23:39.763Z,18.19
2022-10-22T08:26:07.748Z,18.13
2022-10-22T08:28:37.226Z,18.47
2022-10-22T08:31:06.154Z,18.63
2022-10-22T08:33:34.101Z,18.63
2022-10-22T08:36:03.445Z,19.00
2022-10-22T08:38:31.759Z,19.36
2022-10-22T08:41:04.585Z,19.42
2022-10-22T08:44:12.263Z,19.29
2022-10-22T08:47:03.196Z,19.43
2022-10-22T08:49:34.302Z,19.70
2022-10-22T08:52:05.587Z,19.69
2022-10-22T08:54:37.823Z,19.81
2022-10-22T08:57:20.385Z,19.78
2022-10-22T08:59:49.308Z,19.92
2022-10-22T09:02:25.561Z,19.99
2022-10-22T09:04:55.435Z,20.00
2022-10-22T09:07:25.412Z,19.85
2022-10-22T09:09:53.375Z,19.83
2022-10-22T09:12:21.324Z,19.80
2022-10-22T09:14:49.322Z,19.79
2022-10-22T09:17:21.298Z,19.89
2022-10-22T09:19:55.412Z,19.96
2022-10-22T09:22:29.219Z,19.90
2022-10-22T09:24:59.366Z,20.39
2022-10-22T09:27:29.143Z,20.72
2022-10-22T09:29:57.153Z,20.63
2022-10-22T09:32:25.107Z,20.36
2022-10-22T09:34:56.726Z,20.33
2022-10-22T09:37:28.116Z,20.20
2022-10-22T09:39:56.447Z,20.06
2022-10-22T09:42:24.474Z,20.12
2022-10-22T09:44:54.079Z,20.14
2022-10-22T09:47:42.714Z,20.20
2022-10-22T09:50:27.927Z,20.46
2022-10-22T09:53:00.533Z,20.48
2022-10-22T09:55:28.487Z,20.54
2022-10-22T09:57:56.691Z,20.63
2022-10-22T10:00:26.068Z,20.96
2022-10-22T10:02:56.476Z,21.13
2022-10-22T10:05:28.087Z,21.38
2022-10-22T10:07:58.250Z,21.34
2022-10-22T10:10:36.068Z,21.50
2022-10-22T10:13:10.358Z,21.50
2022-10-22T10:15:40.015Z,21.74
2022-10-22T10:18:12.239Z,21.90
2022-10-22T10:20:42.071Z,22.30
2022-10-22T10:23:14.998Z,22.52
2022-10-22T10:25:49.868Z,23.02
2022-10-22T10:28:26.539Z,23.04
2022-10-22T10:30:58.484Z,23.02
2022-10-22T10:33:32.893Z,22.96
2022-10-22T10:36:04.801Z,23.00
2022-10-22T10:38:39.498Z,23.10
2022-10-22T10:41:17.923Z,23.32
2022-10-22T10:43:52.529Z,23.50
2022-10-22T10:46:23.975Z,23.77
2022-10-22T10:48:53.151Z,24.18
2022-10-22T10:51:34.429Z,24.79
2022-10-22T10:54:14.937Z,24.93
2022-10-22T10:56:45.903Z,25.04
2022-10-22T10:59:19.686Z,24.82
2022-10-22T11:01:54.938Z,24.95
2022-10-22T11:04:31.231Z,25.11
2022-10-22T11:07:10.875Z,25.26
2022-10-22T11:09:42.402Z,25.39
2022-10-22T11:12:13.854Z,25.29
2022-10-22T11:14:46.350Z,25.32
2022-10-22T11:17:16.046Z,25.98
2022-10-22T11:19:51.562Z,26.66
2022-10-22T11:22:26.785Z,27.27
2022-10-22T11:24:57.679Z,27.20
2022-10-22T11:27:28.392Z,27.97
2022-10-22T11:29:58.854Z,28.51
2022-10-22T11:32:26.850Z,30.27
2022-10-22T11:34:55.873Z,31.46
2022-10-22T11:37:23.844Z,31.58
2022-10-22T11:39:53.650Z,32.14
2022-10-22T11:42:24.055Z,32.92
2022-10-22T11:45:00.922Z,33.44
2022-10-22T11:47:29.771Z,32.98
2022-10-22T11:49:59.602Z,32.11
2022-10-22T11:52:29.395Z,30.55
2022-10-22T11:54:57.941Z,29.24
2022-10-22T11:57:33.119Z,28.34
2022-10-22T12:00:01.518Z,27.72
2022-10-22T12:02:43.151Z,27.07
2022-10-22T12:05:36.168Z,26.67
2022-10-22T12:08:24.171Z,26.42
2022-10-22T12:11:07.466Z,26.58
2022-10-22T12:13:58.557Z,26.80
2022-10-22T12:16:32.493Z,27.04
2022-10-22T12:19:16.218Z,26.94
2022-10-22T12:21:45.695Z,27.02
2022-10-22T12:24:14.702Z,27.00
2022-10-22T12:26:42.664Z,26.82
2022-10-22T12:29:14.227Z,26.56
2022-10-22T12:31:42.918Z,26.43
2022-10-22T12:34:14.651Z,26.20
2022-10-22T12:36:42.622Z,25.95
2022-10-22T12:39:15.574Z,25.76
2022-10-22T12:41:44.030Z,25.54
2022-10-22T12:44:15.103Z,25.21
2022-10-22T12:46:43.692Z,25.30
2022-10-22T12:49:16.052Z,25.43
2022-10-22T12:51:44.296Z,25.49
2022-10-22T12:54:19.951Z,25.55
2022-10-22T12:56:48.378Z,25.62
2022-10-22T12:59:20.508Z,25.79
2022-10-22T13:01:49.635Z,25.85
2022-10-22T13:04:24.431Z,25.93
2022-10-22T13:06:52.842Z,25.96
2022-10-22T13:09:25.141Z,25.95
2022-10-22T13:11:58.293Z,25.82
2022-10-22T13:14:30.718Z,25.72
2022-10-22T13:17:09.298Z,25.56
2022-10-22T13:19:38.782Z,25.52
2022-10-22T13:22:06.766Z,25.46
2022-10-22T13:24:39.163Z,25.39
2022-10-22T13:27:08.990Z,25.38
2022-10-22T13:29:38.360Z,25.41
2022-10-22T13:32:06.588Z,25.48
2022-10-22T13:34:36.362Z,25.43
2022-10-22T13:37:04.325Z,25.37
2022-10-22T13:39:33.542Z,25.21
2022-10-22T13:42:01.513Z,25.13
2022-10-22T13:44:29.466Z,25.33
2022-10-22T13:46:58.814Z,25.30
2022-10-22T13:49:26.768Z,25.26
2022-10-22T13:51:54.767Z,25.14
2022-10-22T13:54:24.076Z,25.12
2022-10-22T13:56:52.802Z,25.10
2022-10-22T13:59:22.997Z,25.06
2022-10-22T14:01:52.015Z,25.00
2022-10-22T14:04:21.317Z,25.05
2022-10-22T14:06:49.326Z,25.06
2022-10-22T14:09:17.425Z,24.89
2022-10-22T14:11:45.486Z,25.00
2022-10-22T14:14:17.150Z,25.03
2022-10-22T14:16:45.261Z,24.99
2022-10-22T14:19:16.379Z,24.97
2022-10-22T14:21:45.836Z,24.92
2022-10-22T14:24:13.810Z,24.85
2022-10-22T14:26:41.802Z,24.78
2022-10-22T14:29:11.073Z,24.65
2022-10-22T14:34:10.860Z,24.45
2022-10-22T14:36:38.896Z,24.37
2022-10-22T14:39:08.219Z,24.25
2022-10-22T14:41:36.259Z,24.12
2022-10-22T14:44:04.243Z,23.90
2022-10-22T14:46:32.208Z,23.68
2022-10-22T14:49:00.180Z,23.54
2022-10-22T14:51:28.197Z,23.42
2022-10-22T14:53:56.246Z,23.24
2022-10-22T14:56:25.582Z,23.10
2022-10-22T14:58:53.836Z,22.88
2022-10-22T15:01:21.829Z,22.69
2022-10-22T15:03:49.806Z,22.32
2022-10-22T15:06:17.929Z,22.23
2022-10-22T15:08:46.073Z,22.05
2022-10-22T15:11:14.194Z,22.00
2022-10-22T15:13:43.711Z,21.94
2022-10-22T15:16:12.207Z,21.85
2022-10-22T15:18:40.158Z,21.72
2022-10-22T15:21:08.980Z,21.62
2022-10-22T15:23:39.293Z,21.39
2022-10-22T15:26:08.547Z,21.33
2022-10-22T15:28:37.421Z,21.24
2022-10-22T15:31:07.256Z,21.09
2022-10-22T15:33:35.500Z,21.04
2022-10-22T15:36:11.054Z,20.93
2022-10-22T15:38:39.040Z,20.94
2022-10-22T15:41:07.819Z,20.87
2022-10-22T15:43:35.796Z,20.80
2022-10-22T15:46:12.623Z,20.74
2022-10-22T15:48:40.789Z,20.72
2022-10-22T15:51:10.510Z,20.63
2022-10-22T15:53:38.453Z,20.59
2022-10-22T15:56:07.023Z,20.49
2022-10-22T15:58:35.000Z,20.40
2022-10-22T16:01:07.346Z,20.34
2022-10-22T16:03:36.837Z,20.26
2022-10-22T16:06:05.467Z,20.21
2022-10-22T16:08:33.502Z,20.19
2022-10-22T16:11:01.509Z,20.13
2022-10-22T16:13:29.479Z,20.09
2022-10-22T16:15:57.464Z,20.01
2022-10-22T16:18:25.484Z,19.96
2022-10-22T16:20:54.792Z,19.89
2022-10-22T16:23:22.806Z,19.85
2022-10-22T16:25:51.031Z,19.80
2022-10-22T16:28:18.959Z,19.77
2022-10-22T16:30:46.912Z,19.74
2022-10-22T16:33:14.890Z,19.70
2022-10-22T16:35:42.975Z,19.64
2022-10-22T16:38:12.315Z,19.48
2022-10-22T16:40:40.304Z,19.38
2022-10-22T16:43:08.387Z,19.45
2022-10-22T16:45:36.350Z,19.39
2022-10-22T16:48:04.382Z,19.48
2022-10-22T16:50:32.330Z,19.46
2022-10-22T16:53:00.274Z,19.49
2022-10-22T16:55:29.607Z,19.45
2022-10-22T16:57:57.619Z,19.39
2022-10-22T17:00:25.716Z,19.28
2022-10-22T17:02:54.187Z,19.08
2022-10-22T17:05:22.505Z,19.07
2022-10-22T17:07:50.569Z,18.97
2022-10-22T17:10:19.781Z,18.90
2022-10-22T17:12:49.263Z,18.78
2022-10-22T17:15:17.350Z,18.69
2022-10-22T17:17:48.451Z,18.73
2022-10-22T17:20:16.387Z,18.72
2022-10-22T17:22:44.356Z,18.73
2022-10-22T17:25:14.197Z,18.73
2022-10-22T17:27:42.566Z,18.67
2022-10-22T17:30:14.122Z,18.65
2022-10-22T17:32:42.128Z,18.61
2022-10-22T17:35:10.447Z,18.61
2022-10-22T17:37:38.427Z,18.64
2022-10-22T17:40:07.233Z,18.70
2022-10-22T17:42:35.373Z,18.72
2022-10-22T17:45:03.365Z,18.78
2022-10-22T17:47:32.672Z,18.79
2022-10-22T17:50:00.633Z,18.73
2022-10-22T17:52:28.561Z,18.75
2022-10-22T17:54:56.531Z,18.79
2022-10-22T17:57:24.510Z,18.76
2022-10-22T17:59:52.571Z,18.73
2022-10-22T18:02:20.545Z,18.74
2022-10-22T18:04:51.603Z,18.71
2022-10-22T18:07:20.828Z,18.73
2022-10-22T18:09:48.998Z,18.69
2022-10-22T18:12:18.143Z,18.74
2022-10-22T18:14:47.056Z,18.79
2022-10-22T18:19:50.683Z,18.84
2022-10-22T18:22:18.687Z,18.86
2022-10-22T18:24:46.650Z,18.87
2022-10-22T18:27:14.587Z,18.86
2022-10-22T18:29:42.557Z,18.91
2022-10-22T18:32:13.113Z,18.92
2022-10-22T18:34:41.413Z,18.89
2022-10-22T18:37:10.737Z,18.96
2022-10-22T18:39:38.680Z,19.00
2022-10-22T18:42:07.309Z,19.04
2022-10-22T18:44:35.709Z,18.96
2022-10-22T18:47:03.679Z,18.94
2022-10-22T18:49:31.602Z,18.93
2022-10-22T18:51:59.546Z,18.88
2022-10-22T18:54:28.930Z,18.77
2022-10-22T18:57:00.496Z,18.73
2022-10-22T18:59:30.045Z,18.70
2022-10-22T19:01:59.598Z,18.71
2022-10-22T19:04:31.047Z,18.63
2022-10-22T19:06:59.218Z,18.54
2022-10-22T19:09:28.937Z,18.46
2022-10-22T19:11:56.949Z,18.40
2022-10-22T19:14:24.902Z,18.35
2022-10-22T19:16:52.906Z,18.32
2022-10-22T19:19:21.607Z,18.26
2022-10-22T19:21:49.563Z,18.14
2022-10-22T19:24:17.961Z,18.12
2022-10-22T19:26:47.718Z,18.05
2022-10-22T19:29:16.178Z,17.94
2022-10-22T19:31:44.503Z,17.84
2022-10-22T19:34:12.475Z,17.72
2022-10-22T19:36:40.421Z,17.60
2022-10-22T19:39:08.960Z,17.51
2022-10-22T19:41:37.008Z,17.39
2022-10-22T19:44:06.354Z,17.26
2022-10-22T19:46:34.323Z,17.09
2022-10-22T19:49:03.202Z,16.91
2022-10-22T19:51:31.794Z,16.80
2022-10-22T19:54:00.357Z,16.53
2022-10-22T19:56:28.410Z,16.55
2022-10-22T19:58:56.386Z,16.46
2022-10-22T20:01:25.889Z,16.35
2022-10-22T20:03:53.961Z,16.23
2022-10-22T20:06:22.130Z,16.11
2022-10-22T20:08:53.723Z,16.01
2022-10-22T20:11:25.086Z,15.93
2022-10-22T20:13:53.045Z,15.85
2022-10-22T20:16:23.129Z,15.63
2022-10-22T20:18:52.638Z,15.60
2022-10-22T20:21:20.663Z,15.48
2022-10-22T20:23:48.709Z,15.41
2022-10-22T20:26:16.699Z,15.34
2022-10-22T20:28:44.643Z,15.23
2022-10-22T20:31:12.873Z,15.16
2022-10-22T20:33:40.838Z,15.05
2022-10-22T20:36:17.856Z,15.03
2022-10-22T20:38:48.150Z,15.00
2022-10-22T20:41:17.264Z,14.95
2022-10-22T20:43:45.550Z,14.84
2022-10-22T20:46:16.316Z,14.87
2022-10-22T20:48:44.257Z,14.84
2022-10-22T20:51:13.594Z,14.85
2022-10-22T20:53:41.640Z,14.80
2022-10-22T20:56:10.853Z,14.77
2022-10-22T20:58:39.239Z,14.74
2022-10-22T21:01:12.187Z,14.68
2022-10-22T21:03:40.479Z,14.64
2022-10-22T21:06:08.910Z,14.60
2022-10-22T21:08:38.288Z,14.57
2022-10-22T21:11:06.529Z,14.58
2022-10-22T21:13:34.497Z,14.56
2022-10-22T21:16:08.382Z,14.55
2022-10-22T21:18:36.353Z,14.47
2022-10-22T21:21:05.087Z,14.42
2022-10-22T21:23:33.109Z,14.49
2022-10-22T21:26:02.517Z,14.41
2022-10-22T21:31:03.450Z,14.25
2022-10-22T21:33:31.386Z,14.18
2022-10-22T21:35:59.426Z,14.11
2022-10-22T21:38:27.404Z,14.06
2022-10-22T21:40:55.489Z,13.94
2022-10-22T21:43:24.874Z,13.91
2022-10-22T21:45:52.885Z,13.89
2022-10-22T21:48:20.879Z,13.76
2022-10-22T21:50:49.975Z,13.85
2022-10-22T21:53:17.931Z,13.90
2022-10-22T21:55:45.881Z,13.89
2022-10-22T21:58:13.834Z,13.95
2022-10-22T22:00:43.169Z,13.94
2022-10-22T22:03:11.163Z,13.88
2022-10-22T22:05:39.527Z,13.70
2022-10-22T22:08:07.826Z,13.79
2022-10-22T22:10:35.848Z,13.80
2022-10-22T22:13:03.816Z,13.84
2022-10-22T22:15:31.840Z,13.77
2022-10-22T22:18:01.192Z,13.78
2022-10-22T22:20:29.766Z,13.73
2022-10-22T22:22:57.777Z,13.68
2022-10-22T22:25:25.779Z,13.64
2022-10-22T22:27:53.814Z,13.62
2022-10-22T22:30:21.839Z,13.65
2022-10-22T22:32:49.801Z,13.67
2022-10-22T22:35:19.354Z,13.64
2022-10-22T22:37:47.420Z,13.63
2022-10-22T22:40:15.532Z,13.58
2022-10-22T22:42:43.624Z,13.53
2022-10-22T22:45:11.606Z,13.54
2022-10-22T22:47:39.783Z,13.50
2022-10-22T22:50:09.085Z,13.50
2022-10-22T22:52:38.631Z,13.53
2022-10-22T22:55:07.867Z,13.56
2022-10-22T22:57:36.341Z,13.60
2022-10-22T23:00:04.446Z,13.63
2022-10-22T23:02:32.453Z,13.64
2022-10-22T23:05:00.412Z,13.66
2022-10-22T23:07:28.387Z,13.67
2022-10-22T23:09:57.739Z,13.68
2022-10-22T23:12:25.822Z,13.67
2022-10-22T23:14:53.825Z,13.68
2022-10-22T23:17:21.783Z,13.71
2022-10-22T23:19:49.815Z,13.71
2022-10-22T23:22:17.744Z,13.73
2022-10-22T23:24:45.793Z,13.70
2022-10-22T23:27:15.192Z,13.68
2022-10-22T23:29:43.142Z,13.64
2022-10-22T23:32:14.405Z,13.59
2022-10-22T23:34:42.363Z,13.56
2022-10-22T23:37:11.308Z,13.49
2022-10-22T23:39:39.271Z,13.43
2022-10-22T23:42:07.217Z,13.35
2022-10-22T23:44:36.661Z,13.33
2022-10-22T23:47:04.662Z,13.32
2022-10-22T23:49:32.835Z,13.35
2022-10-22T23:52:00.778Z,13.29
2022-10-22T23:54:28.750Z,13.33
2022-10-22T23:56:56.745Z,13.38
2022-10-22T23:59:24.729Z,13.37
